sensor_id;sensor_type;location;lat;lon;timestamp;pressure;altitude;pressure_sealevel;temperature
63689;BMP280;54895;40.928;14.480;2023-01-24T19:47:27;102061.94;;;13.49
63689;BMP280;54895;40.928;14.480;2023-01-24T19:49:53;102065.97;;;13.61
63689;BMP280;54895;40.928;14.480;2023-01-24T19:52:20;102064.28;;;13.58
63689;BMP280;54895;40.928;14.480;2023-01-24T19:54:46;102063.47;;;13.39
63689;BMP280;54895;40.928;14.480;2023-01-24T19:57:13;102056.22;;;13.29
63689;BMP280;54895;40.928;14.480;2023-01-24T19:59:39;102067.66;;;13.29
63689;BMP280;54895;40.928;14.480;2023-01-24T20:02:08;102059.22;;;13.15
63689;BMP280;54895;40.928;14.480;2023-01-24T20:04:35;102055.56;;;13.18
63689;BMP280;54895;40.928;14.480;2023-01-24T20:07:01;102057.06;;;13.08
63689;BMP280;54895;40.928;14.480;2023-01-24T20:09:29;102046.84;;;13.12
63689;BMP280;54895;40.928;14.480;2023-01-24T20:11:56;102057.03;;;13.13
63689;BMP280;54895;40.928;14.480;2023-01-24T20:14:22;102048.22;;;13.23
63689;BMP280;54895;40.928;14.480;2023-01-24T20:16:49;102056.34;;;13.07
63689;BMP280;54895;40.928;14.480;2023-01-24T20:19:15;102060.66;;;13.15
63689;BMP280;54895;40.928;14.480;2023-01-24T20:21:42;102051.94;;;13.50
63689;BMP280;54895;40.928;14.480;2023-01-24T20:24:10;102051.50;;;13.75
63689;BMP280;54895;40.928;14.480;2023-01-24T20:26:37;102051.31;;;13.97
63689;BMP280;54895;40.928;14.480;2023-01-24T20:29:04;102039.78;;;14.08
63689;BMP280;54895;40.928;14.480;2023-01-24T20:31:34;102041.63;;;13.94
63689;BMP280;54895;40.928;14.480;2023-01-24T20:34:00;102037.25;;;13.91
63689;BMP280;54895;40.928;14.480;2023-01-24T20:36:26;102028.88;;;14.06
63689;BMP280;54895;40.928;14.480;2023-01-24T20:38:54;102026.13;;;14.11
63689;BMP280;54895;40.928;14.480;2023-01-24T20:41:21;102032.84;;;13.99
63689;BMP280;54895;40.928;14.480;2023-01-24T20:43:48;102036.97;;;13.65
63689;BMP280;54895;40.928;14.480;2023-01-24T20:46:27;102034.22;;;13.52
63689;BMP280;54895;40.928;14.480;2023-01-24T20:48:55;102033.72;;;13.48
63689;BMP280;54895;40.928;14.480;2023-01-24T20:51:23;102031.63;;;13.65
63689;BMP280;54895;40.928;14.480;2023-01-24T20:53:58;102031.56;;;13.41
63689;BMP280;54895;40.928;14.480;2023-01-24T20:56:26;102041.69;;;13.54
63689;BMP280;54895;40.928;14.480;2023-01-24T20:58:55;102038.81;;;13.12
63689;BMP280;54895;40.928;14.480;2023-01-24T21:01:26;102042.88;;;13.23
63689;BMP280;54895;40.928;14.480;2023-01-24T21:04:00;102037.28;;;13.21
63689;BMP280;54895;40.928;14.480;2023-01-24T21:06:27;102036.84;;;13.18
63689;BMP280;54895;40.928;14.480;2023-01-24T21:08:54;102040.59;;;13.38
63689;BMP280;54895;40.928;14.480;2023-01-24T21:11:24;102035.91;;;13.15
63689;BMP280;54895;40.928;14.480;2023-01-24T21:13:59;102035.25;;;13.38
63689;BMP280;54895;40.928;14.480;2023-01-24T21:16:28;102040.13;;;13.34
63689;BMP280;54895;40.928;14.480;2023-01-24T21:18:57;102040.69;;;13.27
63689;BMP280;54895;40.928;14.480;2023-01-24T21:21:26;102038.28;;;13.18
63689;BMP280;54895;40.928;14.480;2023-01-24T21:23:56;102036.53;;;13.32
63689;BMP280;54895;40.928;14.480;2023-01-24T21:26:22;102031.78;;;13.14
63689;BMP280;54895;40.928;14.480;2023-01-24T21:28:49;102039.09;;;13.43
63689;BMP280;54895;40.928;14.480;2023-01-24T21:31:18;102040.00;;;13.56
63689;BMP280;54895;40.928;14.480;2023-01-24T21:33:46;102035.84;;;13.55
63689;BMP280;54895;40.928;14.480;2023-01-24T21:36:18;102036.69;;;13.45
63689;BMP280;54895;40.928;14.480;2023-01-24T21:38:45;102032.09;;;13.34
63689;BMP280;54895;40.928;14.480;2023-01-24T21:41:14;102023.66;;;13.30
63689;BMP280;54895;40.928;14.480;2023-01-24T21:44:00;102024.22;;;13.18
63689;BMP280;54895;40.928;14.480;2023-01-24T21:46:26;102027.69;;;13.08
63689;BMP280;54895;40.928;14.480;2023-01-24T21:48:53;102027.13;;;12.74
63689;BMP280;54895;40.928;14.480;2023-01-24T21:51:43;102034.00;;;12.37
63689;BMP280;54895;40.928;14.480;2023-01-24T21:54:15;102024.13;;;11.99
63689;BMP280;54895;40.928;14.480;2023-01-24T21:59:33;102017.84;;;11.80
63689;BMP280;54895;40.928;14.480;2023-01-24T22:02:11;102011.75;;;11.85
63689;BMP280;54895;40.928;14.480;2023-01-24T22:04:38;102007.41;;;11.93
63689;BMP280;54895;40.928;14.480;2023-01-24T22:07:05;102010.53;;;12.08
63689;BMP280;54895;40.928;14.480;2023-01-24T22:09:31;102016.06;;;12.26
63689;BMP280;54895;40.928;14.480;2023-01-24T22:11:57;102019.69;;;12.40
63689;BMP280;54895;40.928;14.480;2023-01-24T22:14:26;102007.53;;;12.55
63689;BMP280;54895;40.928;14.480;2023-01-24T22:16:58;102004.88;;;12.50
63689;BMP280;54895;40.928;14.480;2023-01-24T22:19:48;102004.56;;;12.64
63689;BMP280;54895;40.928;14.480;2023-01-24T22:25:18;101988.88;;;12.96
63689;BMP280;54895;40.928;14.480;2023-01-24T22:27:51;101986.56;;;13.16
63689;BMP280;54895;40.928;14.480;2023-01-24T22:30:20;101980.78;;;12.61
63689;BMP280;54895;40.928;14.480;2023-01-24T22:32:48;101985.44;;;12.44
63689;BMP280;54895;40.928;14.480;2023-01-24T22:35:17;101980.59;;;12.48
63689;BMP280;54895;40.928;14.480;2023-01-24T22:41:04;101964.88;;;12.28
63689;BMP280;54895;40.928;14.480;2023-01-24T22:43:31;101946.66;;;12.37
63689;BMP280;54895;40.928;14.480;2023-01-24T22:45:57;101949.41;;;12.72
63689;BMP280;54895;40.928;14.480;2023-01-24T22:48:24;101955.25;;;12.03
63689;BMP280;54895;40.928;14.480;2023-01-24T22:50:54;101944.63;;;11.81
63689;BMP280;54895;40.928;14.480;2023-01-24T22:53:20;101935.66;;;11.73
63689;BMP280;54895;40.928;14.480;2023-01-24T22:55:46;101934.19;;;11.72
63689;BMP280;54895;40.928;14.480;2023-01-24T22:58:13;101921.78;;;12.02
63689;BMP280;54895;40.928;14.480;2023-01-24T23:00:39;101932.47;;;11.91
63689;BMP280;54895;40.928;14.480;2023-01-24T23:03:05;101911.19;;;11.47
63689;BMP280;54895;40.928;14.480;2023-01-24T23:05:31;101915.31;;;11.26
63689;BMP280;54895;40.928;14.480;2023-01-24T23:07:58;101915.28;;;11.48
63689;BMP280;54895;40.928;14.480;2023-01-24T23:10:24;101908.03;;;11.65
63689;BMP280;54895;40.928;14.480;2023-01-24T23:12:50;101910.84;;;12.05
63689;BMP280;54895;40.928;14.480;2023-01-24T23:15:35;101911.44;;;12.44
63689;BMP280;54895;40.928;14.480;2023-01-24T23:18:23;101895.44;;;12.39
63689;BMP280;54895;40.928;14.480;2023-01-24T23:21:18;101885.56;;;12.28
63689;BMP280;54895;40.928;14.480;2023-01-24T23:23:56;101902.47;;;12.42
63689;BMP280;54895;40.928;14.480;2023-01-24T23:26:22;101900.75;;;12.50
63689;BMP280;54895;40.928;14.480;2023-01-24T23:31:35;101896.00;;;12.21
63689;BMP280;54895;40.928;14.480;2023-01-24T23:34:01;101882.50;;;11.97
63689;BMP280;54895;40.928;14.480;2023-01-24T23:36:28;101884.47;;;11.91
63689;BMP280;54895;40.928;14.480;2023-01-24T23:38:54;101888.84;;;11.94
63689;BMP280;54895;40.928;14.480;2023-01-24T23:41:20;101872.88;;;11.72
63689;BMP280;54895;40.928;14.480;2023-01-24T23:43:48;101881.63;;;11.67
63689;BMP280;54895;40.928;14.480;2023-01-24T23:46:14;101870.47;;;11.63
63689;BMP280;54895;40.928;14.480;2023-01-24T23:48:40;101873.38;;;11.65
63689;BMP280;54895;40.928;14.480;2023-01-24T23:51:07;101870.22;;;11.77
63689;BMP280;54895;40.928;14.480;2023-01-24T23:53:34;101866.81;;;11.77
63689;BMP280;54895;40.928;14.480;2023-01-24T23:56:00;101857.09;;;11.79
63689;BMP280;54895;40.928;14.480;2023-01-24T23:58:26;101870.66;;;11.92
